Time;durP1;ratioP1;P1;durP2;ratioP2;P2;SDS_P1;SDS_P2;PMS_P1;PMS_P2;Temp;Humidity;BMP_temperature;BMP_pressure;BME280_temperature;BME280_humidity;BME280_pressure;Samples;Min_cycle;Max_cycle;Signal;HPM_P1;HPM_P2
2019/10/13 00:00:06;;;;;;;3.9;2;;;;;;;13.28;92.37793;95310.85;;;;
2019/10/13 00:01:08;;;;;;;3.9;2;;;;;;;13.28;92.37793;95310.85;;;;
2019/10/13 00:02:12;;;;;;;3.9;2;;;;;;;13.28;92.37793;95310.85;;;;
2019/10/13 00:03:13;;;;;;;5.4;2.4;;;;;;;13.25;92.14551;95315.01;;;;
2019/10/13 00:04:14;;;;;;;5.4;2.4;;;;;;;13.25;92.14551;95315.01;;;;
2019/10/13 00:05:15;;;;;;;2.700001;2.1;;;;;;;13.22;91.75391;95312.26;;;;
2019/10/13 00:06:16;;;;;;;2.700001;2.1;;;;;;;13.22;91.75391;95312.26;;;;
2019/10/13 00:07:17;;;;;;;2.700001;2.1;;;;;;;13.22;91.75391;95312.26;;;;
2019/10/13 00:08:19;;;;;;;3.05;2.1;;;;;;;13.21;91.35547;95312.52;;;;
2019/10/13 00:09:20;;;;;;;3.05;2.1;;;;;;;13.21;91.35547;95312.52;;;;
2019/10/13 00:10:21;;;;;;;3.1;2.15;;;;;;;13.2;90.97754;95304.11;;;;
2019/10/13 00:11:22;;;;;;;3.1;2.15;;;;;;;13.2;90.97754;95304.11;;;;
2019/10/13 00:12:58;;;;;;;3.35;2.05;;;;;;;13.18;90.90918;95304.47;;;;
2019/10/13 00:13:59;;;;;;;3.35;2.05;;;;;;;13.18;90.90918;95304.47;;;;
2019/10/13 00:15:03;;;;;;;3.35;2.05;;;;;;;13.18;90.90918;95304.47;;;;
2019/10/13 00:16:38;;;;;;;2.3;2.1;;;;;;;13.16;90.41406;95302.44;;;;
2019/10/13 00:18:49;;;;;;;3.45;2.2;;;;;;;13.16;90.25195;95309.33;;;;
2019/10/13 00:20:59;;;;;;;3.45;2.2;;;;;;;13.16;90.25195;95309.33;;;;
2019/10/13 00:22:00;;;;;;;3.7;2.2;;;;;;;13.17;89.79297;95306.92;;;;
2019/10/13 00:23:01;;;;;;;3.7;2.2;;;;;;;13.17;89.79297;95306.92;;;;
2019/10/13 00:24:03;;;;;;;2.95;1.9;;;;;;;13.16;89.40723;95309.21;;;;
2019/10/13 00:25:04;;;;;;;2.95;1.9;;;;;;;13.16;89.40723;95309.21;;;;
2019/10/13 00:26:42;;;;;;;3.4;2.2;;;;;;;13.16;89.01074;95303.38;;;;
2019/10/13 00:27:43;;;;;;;3.4;2.2;;;;;;;13.16;89.01074;95303.38;;;;
2019/10/13 00:28:44;;;;;;;3.4;2.2;;;;;;;13.16;89.01074;95303.38;;;;
2019/10/13 00:29:45;;;;;;;3.699999;2.2;;;;;;;13.15;88.59961;95303.49;;;;
2019/10/13 00:30:46;;;;;;;3.699999;2.2;;;;;;;13.15;88.59961;95303.49;;;;
2019/10/13 00:31:48;;;;;;;5.9;2.3;;;;;;;13.13;88.33984;95304.69;;;;
2019/10/13 00:32:49;;;;;;;5.9;2.3;;;;;;;13.13;88.33984;95304.69;;;;
2019/10/13 00:33:50;;;;;;;5.9;2.3;;;;;;;13.13;88.33984;95304.69;;;;
2019/10/13 00:34:51;;;;;;;3.65;2.2;;;;;;;13.11;88.60254;95308.33;;;;
2019/10/13 00:35:52;;;;;;;3.65;2.2;;;;;;;13.11;88.60254;95308.33;;;;
2019/10/13 00:36:54;;;;;;;3.65;2.2;;;;;;;13.11;88.60254;95308.33;;;;
2019/10/13 00:37:55;;;;;;;3.65;2.2;;;;;;;13.11;88.60254;95308.33;;;;
2019/10/13 00:38:56;;;;;;;3.65;2.2;;;;;;;13.11;88.60254;95308.33;;;;
2019/10/13 00:39:57;;;;;;;3.65;2.2;;;;;;;13.11;88.60254;95308.33;;;;
2019/10/13 00:41:16;;;;;;;3.65;2.2;;;;;;;13.11;88.60254;95308.33;;;;
2019/10/13 00:42:17;;;;;;;3.65;2.2;;;;;;;13.11;88.60254;95308.33;;;;
2019/10/13 00:43:19;;;;;;;3.65;2.2;;;;;;;13.11;88.60254;95308.33;;;;
2019/10/13 00:44:20;;;;;;;3.65;2.2;;;;;;;13.11;88.60254;95308.33;;;;
2019/10/13 00:45:21;;;;;;;7.400001;2.35;;;;;;;12.55;89.3916;95304.78;;;;
2019/10/13 00:46:22;;;;;;;7.400001;2.35;;;;;;;12.55;89.3916;95304.78;;;;
2019/10/13 00:47:24;;;;;;;7.400001;2.35;;;;;;;12.55;89.3916;95304.78;;;;
2019/10/13 00:48:25;;;;;;;3.95;2.25;;;;;;;12.47;90.18555;95298;;;;
2019/10/13 00:49:26;;;;;;;3.95;2.25;;;;;;;12.47;90.18555;95298;;;;
2019/10/13 00:50:27;;;;;;;2.9;1.8;;;;;;;12.44;90.36133;95306.21;;;;
2019/10/13 00:51:28;;;;;;;2.9;1.8;;;;;;;12.44;90.36133;95306.21;;;;
2019/10/13 00:52:29;;;;;;;2.9;1.8;;;;;;;12.44;90.36133;95306.21;;;;
2019/10/13 00:53:30;;;;;;;4.4;2.2;;;;;;;12.38;90.49805;95310.83;;;;
2019/10/13 00:54:32;;;;;;;4.4;2.2;;;;;;;12.38;90.49805;95310.83;;;;
2019/10/13 00:55:33;;;;;;;4.4;2.2;;;;;;;12.38;90.49805;95310.83;;;;
2019/10/13 00:56:34;;;;;;;4.4;2.2;;;;;;;12.38;90.49805;95310.83;;;;
2019/10/13 00:57:35;;;;;;;4.4;2.2;;;;;;;12.38;90.49805;95310.83;;;;
2019/10/13 00:58:36;;;;;;;4.4;2.2;;;;;;;12.38;90.49805;95310.83;;;;
2019/10/13 00:59:38;;;;;;;4.4;2.2;;;;;;;12.38;90.49805;95310.83;;;;
2019/10/13 01:00:39;;;;;;;4.4;2.2;;;;;;;12.38;90.49805;95310.83;;;;
2019/10/13 01:01:40;;;;;;;4.4;2.2;;;;;;;12.38;90.49805;95310.83;;;;
2019/10/13 01:02:41;;;;;;;4.4;2.2;;;;;;;12.38;90.49805;95310.83;;;;
2019/10/13 01:03:42;;;;;;;4.4;2.15;;;;;;;11.77;90.58496;95309.91;;;;
2019/10/13 01:04:44;;;;;;;4.4;2.15;;;;;;;11.77;90.58496;95309.91;;;;
2019/10/13 01:05:45;;;;;;;4.4;2.15;;;;;;;11.77;90.58496;95309.91;;;;
2019/10/13 01:06:46;;;;;;;4.949999;2.6;;;;;;;11.68;91.63477;95310.42;;;;
2019/10/13 01:07:47;;;;;;;4.949999;2.6;;;;;;;11.68;91.63477;95310.42;;;;
2019/10/13 01:08:49;;;;;;;4.949999;2.6;;;;;;;11.68;91.63477;95310.42;;;;
2019/10/13 01:09:50;;;;;;;4.949999;2.6;;;;;;;11.68;91.63477;95310.42;;;;
2019/10/13 01:10:51;;;;;;;4.949999;2.6;;;;;;;11.68;91.63477;95310.42;;;;
2019/10/13 01:11:53;;;;;;;4.949999;2.6;;;;;;;11.68;91.63477;95310.42;;;;
2019/10/13 01:12:54;;;;;;;4.949999;2.6;;;;;;;11.68;91.63477;95310.42;;;;
2019/10/13 01:13:55;;;;;;;4.949999;2.6;;;;;;;11.68;91.63477;95310.42;;;;
2019/10/13 01:14:56;;;;;;;4.949999;2.6;;;;;;;11.68;91.63477;95310.42;;;;
2019/10/13 01:15:57;;;;;;;4.949999;2.6;;;;;;;11.68;91.63477;95310.42;;;;
2019/10/13 01:16:59;;;;;;;3.8;2.55;;;;;;;11.17;91.75293;95312.61;;;;
2019/10/13 01:18:00;;;;;;;3.8;2.55;;;;;;;11.17;91.75293;95312.61;;;;
2019/10/13 01:19:01;;;;;;;3.8;2.55;;;;;;;11.17;91.75293;95312.61;;;;
2019/10/13 01:20:02;;;;;;;3.65;2.4;;;;;;;11.11;93.01953;95314.93;;;;
2019/10/13 01:21:04;;;;;;;3.65;2.4;;;;;;;11.11;93.01953;95314.93;;;;
2019/10/13 01:22:06;;;;;;;3.65;2.4;;;;;;;11.11;93.01953;95314.93;;;;
2019/10/13 01:23:07;;;;;;;3.65;2.4;;;;;;;11.11;93.01953;95314.93;;;;
2019/10/13 01:24:08;;;;;;;3.65;2.4;;;;;;;11.11;93.01953;95314.93;;;;
2019/10/13 01:25:09;;;;;;;3.65;2.4;;;;;;;11.11;93.01953;95314.93;;;;
2019/10/13 01:26:10;;;;;;;3.65;2.4;;;;;;;11.11;93.01953;95314.93;;;;
2019/10/13 01:27:11;;;;;;;3.65;2.4;;;;;;;11.11;93.01953;95314.93;;;;
2019/10/13 01:28:13;;;;;;;3.65;2.4;;;;;;;11.11;93.01953;95314.93;;;;
2019/10/13 01:29:14;;;;;;;3.65;2.4;;;;;;;11.11;93.01953;95314.93;;;;
2019/10/13 01:30:15;;;;;;;5.55;2.35;;;;;;;10.69;92.86816;95297.66;;;;
2019/10/13 01:31:16;;;;;;;5.55;2.35;;;;;;;10.69;92.86816;95297.66;;;;
2019/10/13 01:32:19;;;;;;;5.55;2.35;;;;;;;10.69;92.86816;95297.66;;;;
2019/10/13 01:33:21;;;;;;;4.6;2.25;;;;;;;10.65;94.0918;95294.33;;;;
2019/10/13 01:34:22;;;;;;;4.6;2.25;;;;;;;10.65;94.0918;95294.33;;;;
2019/10/13 01:35:23;;;;;;;4.6;2.25;;;;;;;10.65;94.0918;95294.33;;;;
2019/10/13 01:36:25;;;;;;;4.6;2.25;;;;;;;10.65;94.0918;95294.33;;;;
2019/10/13 01:37:26;;;;;;;4.6;2.25;;;;;;;10.65;94.0918;95294.33;;;;
2019/10/13 01:38:27;;;;;;;4.6;2.25;;;;;;;10.65;94.0918;95294.33;;;;
2019/10/13 01:39:28;;;;;;;4.6;2.25;;;;;;;10.65;94.0918;95294.33;;;;
2019/10/13 01:40:29;;;;;;;4.6;2.25;;;;;;;10.65;94.0918;95294.33;;;;
2019/10/13 01:41:31;;;;;;;4.6;2.25;;;;;;;10.65;94.0918;95294.33;;;;
2019/10/13 01:42:32;;;;;;;4.6;2.25;;;;;;;10.65;94.0918;95294.33;;;;
2019/10/13 01:43:33;;;;;;;5.349999;2.4;;;;;;;10.29;93.8457;95299.83;;;;
2019/10/13 01:44:34;;;;;;;5.349999;2.4;;;;;;;10.29;93.8457;95299.83;;;;
2019/10/13 01:45:35;;;;;;;5.349999;2.4;;;;;;;10.29;93.8457;95299.83;;;;
2019/10/13 01:46:37;;;;;;;7;2.45;;;;;;;10.27;95.11621;95304.63;;;;
2019/10/13 01:47:38;;;;;;;7;2.45;;;;;;;10.27;95.11621;95304.63;;;;
2019/10/13 01:48:39;;;;;;;7;2.45;;;;;;;10.27;95.11621;95304.63;;;;
2019/10/13 01:50:11;;;;;;;7;2.45;;;;;;;10.27;95.11621;95304.63;;;;
2019/10/13 01:51:12;;;;;;;7;2.45;;;;;;;10.27;95.11621;95304.63;;;;
2019/10/13 01:52:14;;;;;;;7;2.45;;;;;;;10.27;95.11621;95304.63;;;;
2019/10/13 01:53:15;;;;;;;7;2.45;;;;;;;10.27;95.11621;95304.63;;;;
2019/10/13 01:54:16;;;;;;;7;2.45;;;;;;;10.27;95.11621;95304.63;;;;
2019/10/13 01:55:17;;;;;;;7;2.45;;;;;;;10.27;95.11621;95304.63;;;;
2019/10/13 01:56:18;;;;;;;7;2.45;;;;;;;10.27;95.11621;95304.63;;;;
2019/10/13 01:57:19;;;;;;;4.85;2.5;;;;;;;9.97;94.83008;95281.76;;;;
2019/10/13 01:58:21;;;;;;;4.85;2.5;;;;;;;9.97;94.83008;95281.76;;;;
2019/10/13 01:59:26;;;;;;;3.3;2.4;;;;;;;9.97;96.04883;95289.01;;;;
2019/10/13 02:04:32;;;;;;;4.3;2.7;;;;;;;10.06;97.40527;95291.67;;;;
2019/10/13 02:05:33;;;;;;;4.3;2.7;;;;;;;10.06;97.40527;95291.67;;;;
2019/10/13 02:06:34;;;;;;;4.3;2.7;;;;;;;10.06;97.40527;95291.67;;;;
2019/10/13 02:07:36;;;;;;;4.3;2.7;;;;;;;10.06;97.40527;95291.67;;;;
2019/10/13 02:08:37;;;;;;;4.3;2.7;;;;;;;10.06;97.40527;95291.67;;;;
2019/10/13 02:09:38;;;;;;;4.3;2.7;;;;;;;10.06;97.40527;95291.67;;;;
2019/10/13 02:10:39;;;;;;;4.3;2.7;;;;;;;10.06;97.40527;95291.67;;;;
2019/10/13 02:11:41;;;;;;;4.3;2.7;;;;;;;10.06;97.40527;95291.67;;;;
2019/10/13 02:12:42;;;;;;;4.3;2.7;;;;;;;10.06;97.40527;95291.67;;;;
2019/10/13 02:13:43;;;;;;;4.3;2.7;;;;;;;10.06;97.40527;95291.67;;;;
2019/10/13 02:14:45;;;;;;;4.3;2.7;;;;;;;10.06;97.40527;95291.67;;;;
2019/10/13 02:15:46;;;;;;;3.3;2.5;;;;;;;9.79;96.68652;95285.99;;;;
2019/10/13 02:16:47;;;;;;;3.3;2.5;;;;;;;9.79;96.68652;95285.99;;;;
2019/10/13 02:17:49;;;;;;;3;2.3;;;;;;;9.78;97.7373;95291.09;;;;
2019/10/13 02:18:50;;;;;;;3;2.3;;;;;;;9.78;97.7373;95291.09;;;;
2019/10/13 02:19:51;;;;;;;3;2.3;;;;;;;9.78;97.7373;95291.09;;;;
2019/10/13 02:20:52;;;;;;;3;2.3;;;;;;;9.78;97.7373;95291.09;;;;
2019/10/13 02:21:53;;;;;;;3;2.3;;;;;;;9.78;97.7373;95291.09;;;;
2019/10/13 02:22:54;;;;;;;3;2.3;;;;;;;9.78;97.7373;95291.09;;;;
2019/10/13 02:23:56;;;;;;;3;2.3;;;;;;;9.78;97.7373;95291.09;;;;
2019/10/13 02:24:57;;;;;;;3;2.3;;;;;;;9.78;97.7373;95291.09;;;;
2019/10/13 02:25:58;;;;;;;3;2.3;;;;;;;9.78;97.7373;95291.09;;;;
2019/10/13 02:26:59;;;;;;;3;2.3;;;;;;;9.78;97.7373;95291.09;;;;
2019/10/13 02:28:00;;;;;;;3;2.3;;;;;;;9.78;97.7373;95291.09;;;;
2019/10/13 02:29:01;;;;;;;3;2.5;;;;;;;9.56;97.2627;95277.84;;;;
2019/10/13 02:30:03;;;;;;;3;2.5;;;;;;;9.56;97.2627;95277.84;;;;
2019/10/13 02:31:07;;;;;;;2.55;2.35;;;;;;;9.56;98.37793;95282.7;;;;
2019/10/13 02:32:08;;;;;;;2.55;2.35;;;;;;;9.56;98.37793;95282.7;;;;
2019/10/13 02:33:09;;;;;;;2.55;2.35;;;;;;;9.56;98.37793;95282.7;;;;
2019/10/13 02:34:11;;;;;;;2.55;2.35;;;;;;;9.56;98.37793;95282.7;;;;
2019/10/13 02:35:12;;;;;;;2.55;2.35;;;;;;;9.56;98.37793;95282.7;;;;
2019/10/13 02:36:13;;;;;;;2.55;2.35;;;;;;;9.56;98.37793;95282.7;;;;
2019/10/13 02:37:14;;;;;;;2.55;2.35;;;;;;;9.56;98.37793;95282.7;;;;
2019/10/13 02:38:15;;;;;;;2.55;2.35;;;;;;;9.56;98.37793;95282.7;;;;
2019/10/13 02:39:17;;;;;;;2.55;2.35;;;;;;;9.56;98.37793;95282.7;;;;
2019/10/13 02:40:18;;;;;;;2.55;2.35;;;;;;;9.56;98.37793;95282.7;;;;
2019/10/13 02:41:19;;;;;;;2.55;2.35;;;;;;;9.56;98.37793;95282.7;;;;
2019/10/13 02:42:20;;;;;;;3.15;2.4;;;;;;;9.4;97.86426;95279.74;;;;
2019/10/13 02:43:22;;;;;;;3.15;2.4;;;;;;;9.4;97.86426;95279.74;;;;
2019/10/13 02:44:48;;;;;;;3.699999;2.55;;;;;;;9.42;98.88574;95278.99;;;;
2019/10/13 02:45:55;;;;;;;3.699999;2.55;;;;;;;9.42;98.88574;95278.99;;;;
2019/10/13 02:46:57;;;;;;;3.699999;2.55;;;;;;;9.42;98.88574;95278.99;;;;
2019/10/13 02:47:58;;;;;;;3.699999;2.55;;;;;;;9.42;98.88574;95278.99;;;;
2019/10/13 02:49:00;;;;;;;3.699999;2.55;;;;;;;9.42;98.88574;95278.99;;;;
2019/10/13 02:50:02;;;;;;;3.699999;2.55;;;;;;;9.42;98.88574;95278.99;;;;
2019/10/13 02:51:04;;;;;;;3.699999;2.55;;;;;;;9.42;98.88574;95278.99;;;;
2019/10/13 02:52:06;;;;;;;3.699999;2.55;;;;;;;9.42;98.88574;95278.99;;;;
2019/10/13 02:53:07;;;;;;;3.699999;2.55;;;;;;;9.42;98.88574;95278.99;;;;
2019/10/13 02:54:08;;;;;;;3.699999;2.55;;;;;;;9.42;98.88574;95278.99;;;;
2019/10/13 02:55:10;;;;;;;4.9;2.25;;;;;;;9.31;98.42383;95288.35;;;;
2019/10/13 02:56:46;;;;;;;4.9;2.25;;;;;;;9.31;98.42383;95288.35;;;;
2019/10/13 02:57:54;;;;;;;4.55;2.3;;;;;;;9.34;99.39648;95289.64;;;;
2019/10/13 02:59:12;;;;;;;4.55;2.3;;;;;;;9.34;99.39648;95289.64;;;;
2019/10/13 03:01:07;;;;;;;4.55;2.3;;;;;;;9.34;99.39648;95289.64;;;;
2019/10/13 03:06:12;;;;;;;4.55;2.3;;;;;;;9.34;99.39648;95289.64;;;;
2019/10/13 03:07:14;;;;;;;4.55;2.3;;;;;;;9.34;99.39648;95289.64;;;;
2019/10/13 03:08:15;;;;;;;3.65;2.25;;;;;;;9.26;98.79688;95285.01;;;;
2019/10/13 03:09:16;;;;;;;3.65;2.25;;;;;;;9.26;98.79688;95285.01;;;;
2019/10/13 03:10:18;;;;;;;3.65;2.25;;;;;;;9.26;98.79688;95285.01;;;;
2019/10/13 03:11:19;;;;;;;4;2.3;;;;;;;9.3;99.7793;95282.14;;;;
2019/10/13 03:12:20;;;;;;;4;2.3;;;;;;;9.3;99.7793;95282.14;;;;
2019/10/13 03:13:21;;;;;;;4;2.3;;;;;;;9.3;99.7793;95282.14;;;;
2019/10/13 03:14:22;;;;;;;4;2.3;;;;;;;9.3;99.7793;95282.14;;;;
2019/10/13 03:15:24;;;;;;;4;2.3;;;;;;;9.3;99.7793;95282.14;;;;
2019/10/13 03:16:25;;;;;;;4;2.3;;;;;;;9.3;99.7793;95282.14;;;;
2019/10/13 03:17:26;;;;;;;4;2.3;;;;;;;9.3;99.7793;95282.14;;;;
2019/10/13 03:18:28;;;;;;;4;2.3;;;;;;;9.3;99.7793;95282.14;;;;
2019/10/13 03:19:29;;;;;;;4;2.3;;;;;;;9.3;99.7793;95282.14;;;;
2019/10/13 03:20:30;;;;;;;4;2.3;;;;;;;9.3;99.7793;95282.14;;;;
2019/10/13 03:21:31;;;;;;;3.8;2.35;;;;;;;9.23;99.06543;95283.17;;;;
2019/10/13 03:22:33;;;;;;;3.8;2.35;;;;;;;9.23;99.06543;95283.17;;;;
2019/10/13 03:23:34;;;;;;;3.8;2.35;;;;;;;9.23;99.06543;95283.17;;;;
2019/10/13 03:24:35;;;;;;;3.900001;2.6;;;;;;;9.26;100;95282.7;;;;
2019/10/13 03:25:36;;;;;;;3.900001;2.6;;;;;;;9.26;100;95282.7;;;;
2019/10/13 03:26:37;;;;;;;3.900001;2.6;;;;;;;9.26;100;95282.7;;;;
2019/10/13 03:27:38;;;;;;;3.900001;2.6;;;;;;;9.26;100;95282.7;;;;
2019/10/13 03:28:40;;;;;;;3.900001;2.6;;;;;;;9.26;100;95282.7;;;;
2019/10/13 03:29:41;;;;;;;3.900001;2.6;;;;;;;9.26;100;95282.7;;;;
2019/10/13 03:30:42;;;;;;;3.900001;2.6;;;;;;;9.26;100;95282.7;;;;
2019/10/13 03:31:43;;;;;;;3.900001;2.6;;;;;;;9.26;100;95282.7;;;;
2019/10/13 03:32:45;;;;;;;3.900001;2.6;;;;;;;9.26;100;95282.7;;;;
2019/10/13 03:33:47;;;;;;;3.900001;2.6;;;;;;;9.26;100;95282.7;;;;
2019/10/13 03:34:48;;;;;;;3.1;2.4;;;;;;;9.22;99.50586;95282.98;;;;
2019/10/13 03:35:52;;;;;;;3.1;2.4;;;;;;;9.22;99.50586;95282.98;;;;
2019/10/13 03:40:56;;;;;;;2.85;2.299999;;;;;;;9.29;100;95285.89;;;;
2019/10/13 03:42:36;;;;;;;2.85;2.299999;;;;;;;9.29;100;95285.89;;;;
2019/10/13 03:43:49;;;;;;;2.85;2.299999;;;;;;;9.29;100;95285.89;;;;
2019/10/13 03:44:56;;;;;;;2.85;2.299999;;;;;;;9.29;100;95285.89;;;;
2019/10/13 03:45:57;;;;;;;2.85;2.299999;;;;;;;9.29;100;95285.89;;;;
2019/10/13 03:46:59;;;;;;;2.85;2.299999;;;;;;;9.29;100;95285.89;;;;
2019/10/13 03:48:05;;;;;;;4.050001;2.1;;;;;;;9.36;99.7207;95281.23;;;;
2019/10/13 03:49:07;;;;;;;4.050001;2.1;;;;;;;9.36;99.7207;95281.23;;;;
2019/10/13 03:50:08;;;;;;;4.050001;2.1;;;;;;;9.36;99.7207;95281.23;;;;
2019/10/13 03:51:10;;;;;;;7.150001;2.2;;;;;;;9.41;100;95281.78;;;;
2019/10/13 03:52:14;;;;;;;7.150001;2.2;;;;;;;9.41;100;95281.78;;;;
2019/10/13 03:53:20;;;;;;;7.150001;2.2;;;;;;;9.41;100;95281.78;;;;
2019/10/13 03:55:08;;;;;;;7.150001;2.2;;;;;;;9.41;100;95281.78;;;;
2019/10/13 03:58:35;;;;;;;7.150001;2.2;;;;;;;9.41;100;95281.78;;;;
2019/10/13 03:59:43;;;;;;;7.150001;2.2;;;;;;;9.41;100;95281.78;;;;
2019/10/13 04:00:52;;;;;;;7.150001;2.2;;;;;;;9.41;100;95281.78;;;;
2019/10/13 04:02:05;;;;;;;5.05;2.3;;;;;;;9.41;99.88965;95293.48;;;;
2019/10/13 04:03:07;;;;;;;5.05;2.3;;;;;;;9.41;99.88965;95293.48;;;;
2019/10/13 04:04:13;;;;;;;3.5;2.4;;;;;;;9.45;100;95293.85;;;;
2019/10/13 04:05:23;;;;;;;3.5;2.4;;;;;;;9.45;100;95293.85;;;;
2019/10/13 04:06:25;;;;;;;3.5;2.4;;;;;;;9.45;100;95293.85;;;;
2019/10/13 04:07:26;;;;;;;3.5;2.4;;;;;;;9.45;100;95293.85;;;;
2019/10/13 04:08:27;;;;;;;3.5;2.4;;;;;;;9.45;100;95293.85;;;;
2019/10/13 04:09:28;;;;;;;3.5;2.4;;;;;;;9.45;100;95293.85;;;;
2019/10/13 04:10:29;;;;;;;3.5;2.4;;;;;;;9.45;100;95293.85;;;;
2019/10/13 04:11:30;;;;;;;3.5;2.4;;;;;;;9.45;100;95293.85;;;;
2019/10/13 04:12:32;;;;;;;3.5;2.4;;;;;;;9.45;100;95293.85;;;;
2019/10/13 04:13:33;;;;;;;3.5;2.4;;;;;;;9.45;100;95293.85;;;;
2019/10/13 04:14:34;;;;;;;4.65;2.4;;;;;;;9.36;100;95297.81;;;;
2019/10/13 04:15:35;;;;;;;4.65;2.4;;;;;;;9.36;100;95297.81;;;;
2019/10/13 04:16:36;;;;;;;4.65;2.4;;;;;;;9.36;100;95297.81;;;;
2019/10/13 04:17:39;;;;;;;4.65;2.4;;;;;;;9.36;100;95297.81;;;;
2019/10/13 04:18:42;;;;;;;4.65;2.4;;;;;;;9.36;100;95297.81;;;;
2019/10/13 04:19:44;;;;;;;4.65;2.4;;;;;;;9.36;100;95297.81;;;;
2019/10/13 04:20:45;;;;;;;4.65;2.4;;;;;;;9.36;100;95297.81;;;;
2019/10/13 04:21:46;;;;;;;4.65;2.4;;;;;;;9.36;100;95297.81;;;;
2019/10/13 04:22:47;;;;;;;4.65;2.4;;;;;;;9.36;100;95297.81;;;;
2019/10/13 04:23:48;;;;;;;4.65;2.4;;;;;;;9.36;100;95297.81;;;;
2019/10/13 04:24:49;;;;;;;4.65;2.4;;;;;;;9.36;100;95297.81;;;;
2019/10/13 04:26:27;;;;;;;5.5;2.85;;;;;;;9.27;100;95305.08;;;;
2019/10/13 04:27:29;;;;;;;5.5;2.85;;;;;;;9.27;100;95305.08;;;;
2019/10/13 04:28:30;;;;;;;5.5;2.85;;;;;;;9.27;100;95305.08;;;;
2019/10/13 04:29:32;;;;;;;5.5;2.85;;;;;;;9.27;100;95305.08;;;;
2019/10/13 04:30:33;;;;;;;5.5;2.85;;;;;;;9.27;100;95305.08;;;;
2019/10/13 04:31:34;;;;;;;5.5;2.85;;;;;;;9.27;100;95305.08;;;;
2019/10/13 04:32:35;;;;;;;5.5;2.85;;;;;;;9.27;100;95305.08;;;;
2019/10/13 04:33:36;;;;;;;5.5;2.85;;;;;;;9.27;100;95305.08;;;;
2019/10/13 04:34:37;;;;;;;5.5;2.85;;;;;;;9.27;100;95305.08;;;;
2019/10/13 04:35:39;;;;;;;6.35;2.299999;;;;;;;9.06;100;95318.1;;;;
2019/10/13 04:36:40;;;;;;;6.35;2.299999;;;;;;;9.06;100;95318.1;;;;
2019/10/13 04:37:42;;;;;;;6.35;2.299999;;;;;;;9.06;100;95318.1;;;;
2019/10/13 04:38:44;;;;;;;6.35;2.299999;;;;;;;9.06;100;95318.1;;;;
2019/10/13 04:39:45;;;;;;;6.35;2.299999;;;;;;;9.06;100;95318.1;;;;
2019/10/13 04:40:46;;;;;;;6.35;2.299999;;;;;;;9.06;100;95318.1;;;;
2019/10/13 04:41:47;;;;;;;6.35;2.299999;;;;;;;9.06;100;95318.1;;;;
2019/10/13 04:42:49;;;;;;;6.35;2.299999;;;;;;;9.06;100;95318.1;;;;
2019/10/13 04:43:50;;;;;;;6.35;2.299999;;;;;;;9.06;100;95318.1;;;;
2019/10/13 04:44:51;;;;;;;6.35;2.299999;;;;;;;9.06;100;95318.1;;;;
2019/10/13 04:45:52;;;;;;;6.35;2.299999;;;;;;;9.06;100;95318.1;;;;
2019/10/13 04:46:53;;;;;;;4.05;2.45;;;;;;;8.91;100;95320.75;;;;
2019/10/13 04:47:54;;;;;;;4.05;2.45;;;;;;;8.91;100;95320.75;;;;
2019/10/13 04:48:55;;;;;;;4.05;2.45;;;;;;;8.91;100;95320.75;;;;
2019/10/13 04:49:57;;;;;;;4.05;2.45;;;;;;;8.91;100;95320.75;;;;
2019/10/13 04:50:58;;;;;;;4.05;2.45;;;;;;;8.91;100;95320.75;;;;
2019/10/13 04:51:59;;;;;;;4.05;2.45;;;;;;;8.91;100;95320.75;;;;
2019/10/13 04:53:00;;;;;;;4.05;2.45;;;;;;;8.91;100;95320.75;;;;
2019/10/13 04:54:01;;;;;;;4.05;2.45;;;;;;;8.91;100;95320.75;;;;
2019/10/13 04:55:03;;;;;;;4.05;2.45;;;;;;;8.91;100;95320.75;;;;
2019/10/13 04:56:04;;;;;;;4.05;2.45;;;;;;;8.91;100;95320.75;;;;
2019/10/13 04:57:05;;;;;;;3.15;2.55;;;;;;;8.7;100;95324.41;;;;
2019/10/13 04:58:06;;;;;;;3.15;2.55;;;;;;;8.7;100;95324.41;;;;
2019/10/13 04:59:07;;;;;;;3.15;2.55;;;;;;;8.7;100;95324.41;;;;
2019/10/13 05:00:09;;;;;;;3.15;2.55;;;;;;;8.7;100;95324.41;;;;
2019/10/13 05:01:10;;;;;;;3.15;2.55;;;;;;;8.7;100;95324.41;;;;
2019/10/13 05:02:11;;;;;;;3.15;2.55;;;;;;;8.7;100;95324.41;;;;
2019/10/13 05:03:12;;;;;;;3.15;2.55;;;;;;;8.7;100;95324.41;;;;
2019/10/13 05:04:14;;;;;;;3.15;2.55;;;;;;;8.7;100;95324.41;;;;
2019/10/13 05:05:15;;;;;;;3.15;2.55;;;;;;;8.7;100;95324.41;;;;
2019/10/13 05:06:16;;;;;;;3.15;2.55;;;;;;;8.7;100;95324.41;;;;
2019/10/13 05:07:17;;;;;;;3.15;2.55;;;;;;;8.7;100;95324.41;;;;
2019/10/13 05:08:18;;;;;;;3.2;2.55;;;;;;;8.57;100;95328.99;;;;
2019/10/13 05:09:19;;;;;;;3.2;2.55;;;;;;;8.57;100;95328.99;;;;
2019/10/13 05:10:20;;;;;;;3.2;2.55;;;;;;;8.57;100;95328.99;;;;
2019/10/13 05:11:21;;;;;;;3.2;2.55;;;;;;;8.57;100;95328.99;;;;
2019/10/13 05:12:23;;;;;;;3.2;2.55;;;;;;;8.57;100;95328.99;;;;
2019/10/13 05:13:24;;;;;;;3.2;2.55;;;;;;;8.57;100;95328.99;;;;
2019/10/13 05:14:25;;;;;;;3.2;2.55;;;;;;;8.57;100;95328.99;;;;
2019/10/13 05:15:26;;;;;;;3.2;2.55;;;;;;;8.57;100;95328.99;;;;
2019/10/13 05:16:27;;;;;;;3.2;2.55;;;;;;;8.57;100;95328.99;;;;
2019/10/13 05:17:28;;;;;;;3.2;2.55;;;;;;;8.57;100;95328.99;;;;
2019/10/13 05:18:29;;;;;;;5.05;2.5;;;;;;;8.41;100;95320.98;;;;
2019/10/13 05:19:30;;;;;;;5.05;2.5;;;;;;;8.41;100;95320.98;;;;
2019/10/13 05:20:32;;;;;;;5.05;2.5;;;;;;;8.41;100;95320.98;;;;
2019/10/13 05:21:33;;;;;;;5.05;2.5;;;;;;;8.41;100;95320.98;;;;
2019/10/13 05:22:34;;;;;;;5.05;2.5;;;;;;;8.41;100;95320.98;;;;
2019/10/13 05:23:35;;;;;;;5.05;2.5;;;;;;;8.41;100;95320.98;;;;
2019/10/13 05:24:36;;;;;;;5.05;2.5;;;;;;;8.41;100;95320.98;;;;
2019/10/13 05:25:37;;;;;;;5.05;2.5;;;;;;;8.41;100;95320.98;;;;
2019/10/13 05:26:38;;;;;;;5.05;2.5;;;;;;;8.41;100;95320.98;;;;
2019/10/13 05:27:40;;;;;;;5.05;2.5;;;;;;;8.41;100;95320.98;;;;
2019/10/13 05:28:41;;;;;;;5.699998;2.6;;;;;;;8.36;100;95317.3;;;;
2019/10/13 05:29:42;;;;;;;5.699998;2.6;;;;;;;8.36;100;95317.3;;;;
2019/10/13 05:30:43;;;;;;;5.699998;2.6;;;;;;;8.36;100;95317.3;;;;
2019/10/13 05:31:44;;;;;;;5.699998;2.6;;;;;;;8.36;100;95317.3;;;;
2019/10/13 05:32:45;;;;;;;5.699998;2.6;;;;;;;8.36;100;95317.3;;;;
2019/10/13 05:33:46;;;;;;;5.699998;2.6;;;;;;;8.36;100;95317.3;;;;
2019/10/13 05:34:47;;;;;;;5.699998;2.6;;;;;;;8.36;100;95317.3;;;;
2019/10/13 05:35:49;;;;;;;5.699998;2.6;;;;;;;8.36;100;95317.3;;;;
2019/10/13 05:36:50;;;;;;;5.699998;2.6;;;;;;;8.36;100;95317.3;;;;
2019/10/13 05:37:51;;;;;;;5.699998;2.6;;;;;;;8.36;100;95317.3;;;;
2019/10/13 05:38:52;;;;;;;5.699998;2.6;;;;;;;8.36;100;95317.3;;;;
2019/10/13 05:39:53;;;;;;;3.3;2.75;;;;;;;8.29;100;95316.96;;;;
2019/10/13 05:40:54;;;;;;;3.3;2.75;;;;;;;8.29;100;95316.96;;;;
2019/10/13 05:41:55;;;;;;;3.3;2.75;;;;;;;8.29;100;95316.96;;;;
2019/10/13 05:42:57;;;;;;;3.3;2.75;;;;;;;8.29;100;95316.96;;;;
2019/10/13 05:43:58;;;;;;;3.3;2.75;;;;;;;8.29;100;95316.96;;;;
2019/10/13 05:44:59;;;;;;;3.3;2.75;;;;;;;8.29;100;95316.96;;;;
2019/10/13 05:46:00;;;;;;;3.3;2.75;;;;;;;8.29;100;95316.96;;;;
2019/10/13 05:47:07;;;;;;;3.3;2.75;;;;;;;8.29;100;95316.96;;;;
2019/10/13 05:51:17;;;;;;;3.2;2.85;;;;;;;8.43;100;95329.66;;;;
2019/10/13 05:52:18;;;;;;;3.2;2.85;;;;;;;8.43;100;95329.66;;;;
2019/10/13 05:53:19;;;;;;;3.2;2.85;;;;;;;8.43;100;95329.66;;;;
2019/10/13 05:54:21;;;;;;;3.2;2.85;;;;;;;8.43;100;95329.66;;;;
2019/10/13 05:55:22;;;;;;;3.2;2.85;;;;;;;8.43;100;95329.66;;;;
2019/10/13 05:56:23;;;;;;;3.2;2.85;;;;;;;8.43;100;95329.66;;;;
2019/10/13 05:57:24;;;;;;;3.2;2.85;;;;;;;8.43;100;95329.66;;;;
2019/10/13 05:58:25;;;;;;;3.2;2.85;;;;;;;8.43;100;95329.66;;;;
2019/10/13 05:59:27;;;;;;;3.2;2.85;;;;;;;8.43;100;95329.66;;;;
2019/10/13 06:00:28;;;;;;;9.1;3.5;;;;;;;8.7;100;95318.52;;;;
2019/10/13 06:01:29;;;;;;;9.1;3.5;;;;;;;8.7;100;95318.52;;;;
2019/10/13 06:02:30;;;;;;;9.1;3.5;;;;;;;8.7;100;95318.52;;;;
2019/10/13 06:03:31;;;;;;;9.1;3.5;;;;;;;8.7;100;95318.52;;;;
2019/10/13 06:04:32;;;;;;;9.1;3.5;;;;;;;8.7;100;95318.52;;;;
2019/10/13 06:05:33;;;;;;;9.1;3.5;;;;;;;8.7;100;95318.52;;;;
2019/10/13 06:06:35;;;;;;;9.1;3.5;;;;;;;8.7;100;95318.52;;;;
2019/10/13 06:07:36;;;;;;;9.1;3.5;;;;;;;8.7;100;95318.52;;;;
2019/10/13 06:08:37;;;;;;;9.1;3.5;;;;;;;8.7;100;95318.52;;;;
2019/10/13 06:09:38;;;;;;;9.1;3.5;;;;;;;8.7;100;95318.52;;;;
2019/10/13 06:10:39;;;;;;;9.1;3.5;;;;;;;8.7;100;95318.52;;;;
2019/10/13 06:11:40;;;;;;;6;3.4;;;;;;;9.23;100;95337.05;;;;
2019/10/13 06:13:14;;;;;;;6;3.4;;;;;;;9.23;100;95337.05;;;;
2019/10/13 06:14:15;;;;;;;6;3.4;;;;;;;9.23;100;95337.05;;;;
2019/10/13 06:15:16;;;;;;;6;3.4;;;;;;;9.23;100;95337.05;;;;
2019/10/13 06:16:18;;;;;;;6;3.4;;;;;;;9.23;100;95337.05;;;;
2019/10/13 06:17:19;;;;;;;6;3.4;;;;;;;9.23;100;95337.05;;;;
2019/10/13 06:18:22;;;;;;;6;3.4;;;;;;;9.23;100;95337.05;;;;
2019/10/13 06:19:23;;;;;;;6;3.4;;;;;;;9.23;100;95337.05;;;;
2019/10/13 06:20:24;;;;;;;6;3.4;;;;;;;9.23;100;95337.05;;;;
2019/10/13 06:21:25;;;;;;;6;3.4;;;;;;;9.23;100;95337.05;;;;
2019/10/13 06:22:27;;;;;;;3.35;2.95;;;;;;;9.77;99.71777;95334.34;;;;
2019/10/13 06:23:28;;;;;;;3.35;2.95;;;;;;;9.77;99.71777;95334.34;;;;
2019/10/13 06:24:29;;;;;;;5.349999;3;;;;;;;9.97;100;95342.44;;;;
2019/10/13 06:25:30;;;;;;;5.349999;3;;;;;;;9.97;100;95342.44;;;;
2019/10/13 06:26:31;;;;;;;5.349999;3;;;;;;;9.97;100;95342.44;;;;
2019/10/13 06:27:32;;;;;;;7.800001;3.05;;;;;;;10.23;100;95335.86;;;;
2019/10/13 06:28:34;;;;;;;7.800001;3.05;;;;;;;10.23;100;95335.86;;;;
2019/10/13 06:29:35;;;;;;;7.800001;3.05;;;;;;;10.23;100;95335.86;;;;
2019/10/13 06:30:36;;;;;;;7.800001;3.05;;;;;;;10.23;100;95335.86;;;;
2019/10/13 06:31:37;;;;;;;7.800001;3.05;;;;;;;10.23;100;95335.86;;;;
2019/10/13 06:32:38;;;;;;;7.800001;3.05;;;;;;;10.23;100;95335.86;;;;
2019/10/13 06:33:39;;;;;;;7.800001;3.05;;;;;;;10.23;100;95335.86;;;;